createdAt,value
2019-01-26T00:00:21.184Z,18.17
2019-01-26T00:01:21.104Z,18.17
2019-01-26T00:02:21.058Z,18.17
2019-01-26T00:03:21.138Z,18.17
2019-01-26T00:04:21.201Z,18.17
2019-01-26T00:05:21.910Z,18.13
2019-01-26T00:06:21.552Z,18.13
2019-01-26T00:07:21.077Z,18.1
2019-01-26T00:08:21.602Z,18.13
2019-01-26T00:09:21.069Z,18.12
2019-01-26T00:10:21.496Z,18.1
2019-01-26T00:11:21.296Z,18.09
2019-01-26T00:12:21.387Z,18.08
2019-01-26T00:13:21.485Z,18.09
2019-01-26T00:14:21.315Z,18.08
2019-01-26T00:15:21.435Z,18.07
2019-01-26T00:16:22.013Z,18.08
2019-01-26T00:17:21.721Z,18.05
2019-01-26T00:18:21.428Z,18.07
2019-01-26T00:19:21.180Z,18.06
2019-01-26T00:20:21.323Z,18.05
2019-01-26T00:21:21.126Z,18.04
2019-01-26T00:22:21.354Z,18.05
2019-01-26T00:23:21.524Z,18.04
2019-01-26T00:24:21.044Z,18.04
2019-01-26T00:25:21.389Z,17.99
2019-01-26T00:26:21.124Z,18.03
2019-01-26T00:27:21.698Z,18.02
2019-01-26T00:28:21.210Z,18
2019-01-26T00:29:21.298Z,17.99
2019-01-26T00:30:21.338Z,17.99
2019-01-26T00:31:21.179Z,17.99
2019-01-26T00:32:21.302Z,17.96
2019-01-26T00:33:21.366Z,17.99
2019-01-26T00:34:21.129Z,17.97
2019-01-26T00:35:21.472Z,17.96
2019-01-26T00:36:21.553Z,17.95
2019-01-26T00:37:21.095Z,17.94
2019-01-26T00:38:21.262Z,17.93
2019-01-26T00:39:21.475Z,17.95
2019-01-26T00:40:22.970Z,17.94
2019-01-26T00:41:21.239Z,17.93
2019-01-26T00:42:21.690Z,17.92
2019-01-26T00:43:21.219Z,17.93
2019-01-26T00:44:21.403Z,17.94
2019-01-26T00:45:21.335Z,17.92
2019-01-26T00:46:21.172Z,17.91
2019-01-26T00:47:21.416Z,17.93
2019-01-26T00:48:21.279Z,17.9
2019-01-26T00:49:24.505Z,17.88
2019-01-26T00:50:21.335Z,17.9
2019-01-26T00:51:21.261Z,17.88
2019-01-26T00:52:21.450Z,17.9
2019-01-26T00:53:21.051Z,17.88
2019-01-26T00:54:21.590Z,17.87
2019-01-26T00:55:21.591Z,17.87
2019-01-26T00:56:21.296Z,17.85
2019-01-26T00:57:21.322Z,17.83
2019-01-26T00:58:24.143Z,17.83
2019-01-26T00:59:21.111Z,17.84
2019-01-26T01:00:21.236Z,17.84
2019-01-26T01:01:21.321Z,17.83
2019-01-26T01:02:21.430Z,17.82
2019-01-26T01:03:21.125Z,17.82
2019-01-26T01:04:21.462Z,17.82
2019-01-26T01:05:21.268Z,17.82
2019-01-26T01:06:26.348Z,17.81
2019-01-26T01:07:21.557Z,17.8
2019-01-26T01:08:21.327Z,17.8
2019-01-26T01:09:21.254Z,17.8
2019-01-26T01:10:21.310Z,17.8
2019-01-26T01:11:21.132Z,17.77
2019-01-26T01:12:21.134Z,17.79
2019-01-26T01:13:21.726Z,17.78
2019-01-26T01:14:20.978Z,17.76
2019-01-26T01:15:21.971Z,17.76
2019-01-26T01:16:21.269Z,17.76
2019-01-26T01:17:20.962Z,17.76
2019-01-26T01:18:21.349Z,17.76
2019-01-26T01:19:22.121Z,17.76
2019-01-26T01:20:21.341Z,17.76
2019-01-26T01:21:21.693Z,17.74
2019-01-26T01:22:21.152Z,17.73
2019-01-26T01:23:21.876Z,17.74
2019-01-26T01:24:21.205Z,17.73
2019-01-26T01:25:21.242Z,17.73
2019-01-26T01:26:21.316Z,17.72
2019-01-26T01:27:21.337Z,17.72
2019-01-26T01:28:21.727Z,17.72
2019-01-26T01:29:21.229Z,17.69
2019-01-26T01:30:21.761Z,17.68
2019-01-26T01:31:21.033Z,17.7
2019-01-26T01:32:21.246Z,17.68
2019-01-26T01:33:21.112Z,17.66
2019-01-26T01:34:21.077Z,17.68
2019-01-26T01:35:21.314Z,17.68
2019-01-26T01:36:21.154Z,17.68
2019-01-26T01:37:21.551Z,17.66
2019-01-26T01:38:21.883Z,17.64
2019-01-26T01:39:21.620Z,17.67
2019-01-26T01:40:20.990Z,17.64
2019-01-26T01:41:21.434Z,17.65
2019-01-26T01:42:21.090Z,17.65
2019-01-26T01:43:21.392Z,17.64
2019-01-26T01:44:21.288Z,17.64
2019-01-26T01:45:21.352Z,17.63
2019-01-26T01:46:21.065Z,17.63
2019-01-26T01:47:21.319Z,17.61
2019-01-26T01:48:22.072Z,17.61
2019-01-26T01:49:21.052Z,17.61
2019-01-26T01:50:21.259Z,17.6
2019-01-26T01:51:21.470Z,17.61
2019-01-26T01:52:23.001Z,17.59
2019-01-26T01:53:21.194Z,17.61
2019-01-26T01:54:21.330Z,17.58
2019-01-26T01:55:20.982Z,17.59
2019-01-26T01:56:21.223Z,17.58
2019-01-26T01:57:22.412Z,17.58
2019-01-26T01:58:21.298Z,17.56
2019-01-26T01:59:21.334Z,17.55
2019-01-26T02:00:21.514Z,17.54
2019-01-26T02:01:21.140Z,17.56
2019-01-26T02:02:21.170Z,17.55
2019-01-26T02:03:21.318Z,17.56
2019-01-26T02:04:21.134Z,17.53
2019-01-26T02:05:21.686Z,17.56
2019-01-26T02:06:21.409Z,17.55
2019-01-26T02:07:20.945Z,17.54
2019-01-26T02:08:21.174Z,17.52
2019-01-26T02:09:21.062Z,17.54
2019-01-26T02:10:21.414Z,17.55
2019-01-26T02:11:21.281Z,17.5
2019-01-26T02:12:21.273Z,17.53
2019-01-26T02:13:21.121Z,17.51
2019-01-26T02:14:21.327Z,17.51
2019-01-26T02:15:21.439Z,17.5
2019-01-26T02:16:21.076Z,17.51
2019-01-26T02:17:21.486Z,17.49
2019-01-26T02:18:21.295Z,17.5
2019-01-26T02:19:21.275Z,17.49
2019-01-26T02:20:21.060Z,17.47
2019-01-26T02:21:21.183Z,17.47
2019-01-26T02:22:21.482Z,17.49
2019-01-26T02:23:21.374Z,17.49
2019-01-26T02:24:21.700Z,17.49
2019-01-26T02:25:21.322Z,17.47
2019-01-26T02:26:21.865Z,17.48
2019-01-26T02:27:21.098Z,17.47
2019-01-26T02:28:21.187Z,17.47
2019-01-26T02:29:21.121Z,17.46
2019-01-26T02:30:21.570Z,17.46
2019-01-26T02:31:21.798Z,17.44
2019-01-26T02:32:21.183Z,17.44
2019-01-26T02:33:21.381Z,17.44
2019-01-26T02:34:21.796Z,17.45
2019-01-26T02:35:21.320Z,17.45
2019-01-26T02:36:21.081Z,17.44
2019-01-26T02:37:21.494Z,17.44
2019-01-26T02:38:21.385Z,17.43
2019-01-26T02:39:21.143Z,17.41
2019-01-26T02:40:21.074Z,17.44
2019-01-26T02:41:24.197Z,17.45
2019-01-26T02:42:21.735Z,17.43
2019-01-26T02:43:20.919Z,17.41
2019-01-26T02:44:21.227Z,17.4
2019-01-26T02:45:21.304Z,17.41
2019-01-26T02:46:21.034Z,17.38
2019-01-26T02:47:21.548Z,17.39
2019-01-26T02:48:21.452Z,17.4
2019-01-26T02:49:21.485Z,17.4
2019-01-26T02:50:21.653Z,17.4
2019-01-26T02:51:21.370Z,17.38
2019-01-26T02:52:21.012Z,17.38
2019-01-26T02:53:21.313Z,17.37
2019-01-26T02:54:21.510Z,17.38
2019-01-26T02:55:24.248Z,17.38
2019-01-26T02:56:21.482Z,17.37
2019-01-26T02:57:21.743Z,17.38
2019-01-26T02:58:21.324Z,17.37
2019-01-26T02:59:21.931Z,17.37
2019-01-26T03:00:23.008Z,17.35
2019-01-26T03:01:21.033Z,17.37
2019-01-26T03:02:21.169Z,17.37
2019-01-26T03:03:21.258Z,17.34
2019-01-26T03:04:21.413Z,17.33
2019-01-26T03:05:21.141Z,17.35
2019-01-26T03:06:21.121Z,17.34
2019-01-26T03:07:21.420Z,17.34
2019-01-26T03:08:20.991Z,17.34
2019-01-26T03:09:21.649Z,17.33
2019-01-26T03:10:21.157Z,17.32
2019-01-26T03:11:22.986Z,17.34
2019-01-26T03:12:21.463Z,17.32
2019-01-26T03:13:21.069Z,17.3
2019-01-26T03:14:21.468Z,17.32
2019-01-26T03:15:21.200Z,17.31
2019-01-26T03:16:21.005Z,17.31
2019-01-26T03:17:21.522Z,17.29
2019-01-26T03:18:21.173Z,17.3
2019-01-26T03:19:21.050Z,17.3
2019-01-26T03:20:22.997Z,17.28
2019-01-26T03:21:21.296Z,17.29
2019-01-26T03:22:20.987Z,17.28
2019-01-26T03:23:21.614Z,17.3
2019-01-26T03:24:21.228Z,17.26
2019-01-26T03:25:21.317Z,17.26
2019-01-26T03:26:21.791Z,17.29
2019-01-26T03:27:21.224Z,17.25
2019-01-26T03:28:21.195Z,17.28
2019-01-26T03:29:21.471Z,17.26
2019-01-26T03:30:21.273Z,17.25
2019-01-26T03:31:21.532Z,17.24
2019-01-26T03:32:21.659Z,17.25
2019-01-26T03:33:21.959Z,17.25
2019-01-26T03:34:20.855Z,17.24
2019-01-26T03:35:21.313Z,17.24
2019-01-26T03:36:21.191Z,17.25
2019-01-26T03:37:21.272Z,17.24
2019-01-26T03:38:21.024Z,17.24
2019-01-26T03:39:21.344Z,17.23
2019-01-26T03:40:21.914Z,17.22
2019-01-26T03:41:21.124Z,17.25
2019-01-26T03:42:21.124Z,17.22
2019-01-26T03:43:21.191Z,17.23
2019-01-26T03:44:21.029Z,17.21
2019-01-26T03:45:21.174Z,17.22
2019-01-26T03:46:21.394Z,17.21
2019-01-26T03:47:20.992Z,17.22
2019-01-26T03:48:21.181Z,17.22
2019-01-26T03:49:21.169Z,17.2
2019-01-26T03:50:20.992Z,17.22
2019-01-26T03:51:21.434Z,17.2
2019-01-26T03:52:21.253Z,17.2
2019-01-26T03:53:21.106Z,17.21
2019-01-26T03:54:21.323Z,17.2
2019-01-26T03:55:21.459Z,17.18
2019-01-26T03:56:21.085Z,17.19
2019-01-26T03:57:21.110Z,17.19
2019-01-26T03:58:21.204Z,17.18
2019-01-26T03:59:20.965Z,17.17
2019-01-26T04:00:21.064Z,17.18
2019-01-26T04:01:21.195Z,17.18
2019-01-26T04:02:21.008Z,17.18
2019-01-26T04:03:21.410Z,17.18
2019-01-26T04:04:21.212Z,17.16
2019-01-26T04:05:21.247Z,17.16
2019-01-26T04:06:21.272Z,17.16
2019-01-26T04:07:21.254Z,17.16
2019-01-26T04:08:21.331Z,17.16
2019-01-26T04:09:21.525Z,17.16
2019-01-26T04:10:21.559Z,17.15
2019-01-26T04:11:22.169Z,17.15
2019-01-26T04:12:21.504Z,17.15
2019-01-26T04:13:21.306Z,17.15
2019-01-26T04:14:21.155Z,17.14
2019-01-26T04:15:21.028Z,17.16
2019-01-26T04:16:21.409Z,17.11
2019-01-26T04:17:22.399Z,17.16
2019-01-26T04:18:21.154Z,17.13
2019-01-26T04:19:21.262Z,17.13
2019-01-26T04:20:21.312Z,17.11
2019-01-26T04:21:21.108Z,17.11
2019-01-26T04:22:21.000Z,17.1
2019-01-26T04:23:21.208Z,17.13
2019-01-26T04:24:21.280Z,17.11
2019-01-26T04:25:21.179Z,17.1
2019-01-26T04:26:21.064Z,17.09
2019-01-26T04:27:21.109Z,17.1
2019-01-26T04:28:21.410Z,17.09
2019-01-26T04:29:21.300Z,17.09
2019-01-26T04:30:20.972Z,17.09
2019-01-26T04:31:21.694Z,17.08
2019-01-26T04:32:21.153Z,17.08
2019-01-26T04:33:21.752Z,17.1
2019-01-26T04:34:21.314Z,17.07
2019-01-26T04:35:21.418Z,17.09
2019-01-26T04:36:21.252Z,17.08
2019-01-26T04:37:21.222Z,17.07
2019-01-26T04:38:21.102Z,17.09
2019-01-26T04:39:21.450Z,17.07
2019-01-26T04:40:21.212Z,17.08
2019-01-26T04:41:21.144Z,17.07
2019-01-26T04:42:21.279Z,17.06
2019-01-26T04:43:21.235Z,17.08
2019-01-26T04:44:21.403Z,17.08
2019-01-26T04:45:21.401Z,17.08
2019-01-26T04:46:21.178Z,17.09
2019-01-26T04:47:21.111Z,17.07
2019-01-26T04:48:21.484Z,17.07
2019-01-26T04:49:21.234Z,17.09
2019-01-26T04:50:21.336Z,17.07
2019-01-26T04:51:21.206Z,17.08
2019-01-26T04:52:20.915Z,17.09
2019-01-26T04:53:21.281Z,17.07
2019-01-26T04:54:21.725Z,17.1
2019-01-26T04:55:20.970Z,17.09
2019-01-26T04:56:21.510Z,17.1
2019-01-26T04:57:21.053Z,17.11
2019-01-26T04:58:21.572Z,17.11
2019-01-26T04:59:21.105Z,17.14
2019-01-26T05:00:21.404Z,17.13
2019-01-26T05:01:21.148Z,17.15
2019-01-26T05:02:21.085Z,17.16
2019-01-26T05:03:21.084Z,17.17
2019-01-26T05:04:21.502Z,17.18
2019-01-26T05:05:21.135Z,17.19
2019-01-26T05:06:21.196Z,17.21
2019-01-26T05:07:21.163Z,17.19
2019-01-26T05:08:21.235Z,17.21
2019-01-26T05:09:21.432Z,17.23
2019-01-26T05:10:21.469Z,17.23
2019-01-26T05:11:20.967Z,17.23
2019-01-26T05:12:21.688Z,17.26
2019-01-26T05:13:21.459Z,17.28
2019-01-26T05:14:21.234Z,17.28
2019-01-26T05:15:21.435Z,17.29
2019-01-26T05:16:21.248Z,17.31
2019-01-26T05:17:23.642Z,17.32
2019-01-26T05:18:21.216Z,17.33
2019-01-26T05:19:23.047Z,17.37
2019-01-26T05:20:21.020Z,17.35
2019-01-26T05:21:21.447Z,17.37
2019-01-26T05:22:21.204Z,17.38
2019-01-26T05:23:21.282Z,17.41
2019-01-26T05:24:21.191Z,17.4
2019-01-26T05:25:21.259Z,17.44
2019-01-26T05:26:21.034Z,17.45
2019-01-26T05:27:20.975Z,17.46
2019-01-26T05:28:21.190Z,17.46
2019-01-26T05:29:23.972Z,17.48
2019-01-26T05:30:21.154Z,17.5
2019-01-26T05:31:21.454Z,17.51
2019-01-26T05:32:21.001Z,17.52
2019-01-26T05:33:21.056Z,17.51
2019-01-26T05:34:21.212Z,17.52
2019-01-26T05:35:21.267Z,17.54
2019-01-26T05:36:21.061Z,17.56
2019-01-26T05:37:21.224Z,17.6
2019-01-26T05:38:21.299Z,17.6
2019-01-26T05:39:21.171Z,17.6
2019-01-26T05:40:21.149Z,17.64
2019-01-26T05:41:21.287Z,17.64
2019-01-26T05:42:21.138Z,17.64
2019-01-26T05:43:21.453Z,17.66
2019-01-26T05:44:20.965Z,17.68
2019-01-26T05:45:21.373Z,17.68
2019-01-26T05:46:21.191Z,17.73
2019-01-26T05:47:23.400Z,17.73
2019-01-26T05:48:21.021Z,17.75
2019-01-26T05:49:21.266Z,17.76
2019-01-26T05:50:21.357Z,17.76
2019-01-26T05:51:20.919Z,17.78
2019-01-26T05:52:21.452Z,17.79
2019-01-26T05:53:20.946Z,17.81
2019-01-26T05:54:21.267Z,17.82
2019-01-26T05:55:21.378Z,17.84
2019-01-26T05:56:21.282Z,17.84
2019-01-26T05:57:21.322Z,17.85
2019-01-26T05:58:21.550Z,17.88
2019-01-26T05:59:21.402Z,17.88
2019-01-26T06:00:21.324Z,17.89
2019-01-26T06:01:21.278Z,17.92
2019-01-26T06:02:21.141Z,17.93
2019-01-26T06:03:21.119Z,17.93
2019-01-26T06:04:21.465Z,17.95
2019-01-26T06:05:21.252Z,17.96
2019-01-26T06:06:21.215Z,17.96
2019-01-26T06:07:21.457Z,17.96
2019-01-26T06:08:23.321Z,17.99
2019-01-26T06:09:21.714Z,18
2019-01-26T06:10:21.479Z,18.02
2019-01-26T06:11:25.882Z,18.04
2019-01-26T06:12:21.108Z,18.04
2019-01-26T06:13:21.322Z,18.04
2019-01-26T06:14:21.257Z,18.04
2019-01-26T06:15:20.904Z,18.06
2019-01-26T06:16:21.179Z,18.09
2019-01-26T06:17:21.840Z,18.08
2019-01-26T06:18:21.277Z,18.11
2019-01-26T06:19:21.444Z,18.09
2019-01-26T06:20:24.110Z,18.12
2019-01-26T06:21:21.368Z,18.13
2019-01-26T06:22:21.454Z,18.12
2019-01-26T06:23:21.172Z,18.14
2019-01-26T06:24:21.285Z,18.15
2019-01-26T06:25:21.412Z,18.17
2019-01-26T06:26:21.018Z,18.18
2019-01-26T06:27:21.999Z,18.19
2019-01-26T06:28:21.151Z,18.2
2019-01-26T06:29:21.429Z,18.19
2019-01-26T06:30:21.422Z,18.2
2019-01-26T06:31:21.135Z,18.22
2019-01-26T06:32:21.070Z,18.23
2019-01-26T06:33:21.345Z,18.25
2019-01-26T06:34:21.331Z,18.24
2019-01-26T06:35:22.466Z,18.25
2019-01-26T06:36:21.222Z,18.26
2019-01-26T06:37:21.151Z,18.27
2019-01-26T06:38:21.166Z,18.28
2019-01-26T06:39:20.973Z,18.28
2019-01-26T06:40:21.149Z,18.28
2019-01-26T06:41:21.497Z,18.3
2019-01-26T06:42:21.238Z,18.29
2019-01-26T06:43:21.309Z,18.32
2019-01-26T06:44:20.939Z,18.32
2019-01-26T06:45:22.636Z,18.33
2019-01-26T06:46:21.418Z,18.36
2019-01-26T06:47:24.585Z,18.35
2019-01-26T06:48:21.175Z,18.35
2019-01-26T06:49:23.021Z,18.37
2019-01-26T06:50:21.258Z,18.38
2019-01-26T06:51:21.196Z,18.38
2019-01-26T06:52:21.189Z,18.4
2019-01-26T06:53:21.299Z,18.41
2019-01-26T06:54:21.148Z,18.4
2019-01-26T06:55:21.033Z,18.41
2019-01-26T06:56:20.961Z,18.4
2019-01-26T06:57:21.328Z,18.41
2019-01-26T06:58:21.145Z,18.44
2019-01-26T06:59:21.336Z,18.44
2019-01-26T07:00:21.077Z,18.43
2019-01-26T07:01:21.219Z,18.46
2019-01-26T07:02:21.262Z,18.47
2019-01-26T07:03:20.997Z,18.49
2019-01-26T07:04:21.163Z,18.48
2019-01-26T07:05:21.202Z,18.49
2019-01-26T07:06:21.022Z,18.49
2019-01-26T07:07:21.104Z,18.49
2019-01-26T07:08:21.178Z,18.48
2019-01-26T07:09:21.328Z,18.5
2019-01-26T07:10:21.238Z,18.51
2019-01-26T07:11:20.957Z,18.53
2019-01-26T07:12:21.138Z,18.53
2019-01-26T07:13:21.189Z,18.53
2019-01-26T07:14:21.243Z,18.54
2019-01-26T07:15:21.092Z,18.53
2019-01-26T07:16:21.174Z,18.54
2019-01-26T07:17:20.973Z,18.55
2019-01-26T07:18:21.096Z,18.56
2019-01-26T07:19:21.267Z,18.55
2019-01-26T07:20:20.968Z,18.57
2019-01-26T07:21:21.132Z,18.56
2019-01-26T07:22:21.481Z,18.57
2019-01-26T07:23:21.058Z,18.57
2019-01-26T07:24:22.019Z,18.56
2019-01-26T07:25:21.347Z,18.59
2019-01-26T07:26:21.339Z,18.58
2019-01-26T07:27:20.886Z,18.61
2019-01-26T07:28:21.362Z,18.63
2019-01-26T07:29:21.297Z,18.61
2019-01-26T07:30:21.226Z,18.61
2019-01-26T07:31:21.142Z,18.62
2019-01-26T07:32:20.967Z,18.62
2019-01-26T07:33:21.721Z,18.62
2019-01-26T07:34:21.368Z,18.64
2019-01-26T07:35:21.023Z,18.64
2019-01-26T07:36:20.940Z,18.65
2019-01-26T07:37:21.280Z,18.66
2019-01-26T07:38:21.019Z,18.65
2019-01-26T07:39:21.088Z,18.66
2019-01-26T07:40:21.153Z,18.67
2019-01-26T07:41:21.551Z,18.66
2019-01-26T07:42:21.409Z,18.67
2019-01-26T07:43:21.523Z,18.67
2019-01-26T07:44:20.991Z,18.68
2019-01-26T07:45:21.043Z,18.69
2019-01-26T07:46:21.698Z,18.69
2019-01-26T07:47:20.972Z,18.71
2019-01-26T07:48:21.072Z,18.71
2019-01-26T07:49:21.376Z,18.7
2019-01-26T07:50:20.799Z,18.69
2019-01-26T07:51:21.201Z,18.71
2019-01-26T07:52:21.092Z,18.72
2019-01-26T07:53:21.312Z,18.72
2019-01-26T07:54:21.249Z,18.72
2019-01-26T07:55:21.181Z,18.72
2019-01-26T07:56:21.302Z,18.74
2019-01-26T07:57:21.060Z,18.72
2019-01-26T07:58:21.456Z,18.74
2019-01-26T07:59:21.649Z,18.72
2019-01-26T08:00:21.075Z,18.74
2019-01-26T08:01:21.742Z,18.74
2019-01-26T08:02:23.975Z,18.76
2019-01-26T08:03:21.102Z,18.77
2019-01-26T08:04:21.074Z,18.78
2019-01-26T08:05:21.178Z,18.76
2019-01-26T08:06:21.073Z,18.78
2019-01-26T08:07:21.098Z,18.79
2019-01-26T08:08:20.997Z,18.78
2019-01-26T08:09:21.434Z,18.8
2019-01-26T08:10:21.388Z,18.8
2019-01-26T08:11:21.169Z,18.82
2019-01-26T08:12:21.043Z,18.82
2019-01-26T08:13:21.357Z,18.81
2019-01-26T08:14:21.091Z,18.82
2019-01-26T08:15:22.266Z,18.83
2019-01-26T08:16:21.308Z,18.82
2019-01-26T08:17:21.475Z,18.83
2019-01-26T08:18:24.493Z,18.83
2019-01-26T08:19:21.898Z,18.84
2019-01-26T08:20:21.197Z,18.84
2019-01-26T08:21:21.194Z,18.85
2019-01-26T08:22:21.304Z,18.85
2019-01-26T08:23:21.418Z,18.87
2019-01-26T08:24:21.236Z,18.86
2019-01-26T08:25:21.435Z,18.87
2019-01-26T08:26:21.671Z,18.88
2019-01-26T08:27:21.052Z,18.86
2019-01-26T08:28:20.859Z,18.87
2019-01-26T08:29:21.096Z,18.88
2019-01-26T08:30:20.898Z,18.88
2019-01-26T08:31:21.068Z,18.88
2019-01-26T08:32:22.103Z,18.88
2019-01-26T08:33:21.236Z,18.88
2019-01-26T08:34:21.291Z,18.92
2019-01-26T08:35:20.903Z,18.88
2019-01-26T08:36:21.065Z,18.92
2019-01-26T08:37:21.276Z,18.91
2019-01-26T08:38:24.219Z,18.89
2019-01-26T08:39:21.747Z,18.91
2019-01-26T08:40:21.231Z,18.93
2019-01-26T08:41:21.154Z,18.93
2019-01-26T08:42:22.764Z,18.92
2019-01-26T08:43:22.227Z,18.94
2019-01-26T08:44:21.588Z,18.93
2019-01-26T08:45:21.593Z,18.94
2019-01-26T08:46:21.391Z,18.96
2019-01-26T08:47:24.030Z,18.96
2019-01-26T08:48:21.406Z,18.95
2019-01-26T08:49:21.957Z,18.95
2019-01-26T08:50:22.897Z,18.97
2019-01-26T08:51:21.331Z,18.97
2019-01-26T08:52:21.165Z,18.96
2019-01-26T08:53:21.220Z,18.96
2019-01-26T08:54:21.797Z,18.97
2019-01-26T08:55:21.239Z,18.98
2019-01-26T08:56:21.258Z,18.96
2019-01-26T08:57:21.262Z,18.98
2019-01-26T08:58:21.120Z,18.97
2019-01-26T08:59:21.488Z,18.98
2019-01-26T09:00:22.886Z,18.97
2019-01-26T09:01:21.983Z,18.98
2019-01-26T09:02:25.966Z,19
2019-01-26T09:03:20.991Z,19
2019-01-26T09:04:21.313Z,18.99
2019-01-26T09:05:21.810Z,19
2019-01-26T09:06:21.086Z,19
2019-01-26T09:07:22.241Z,19.01
2019-01-26T09:08:21.691Z,19.01
2019-01-26T09:09:20.826Z,19
2019-01-26T09:10:21.192Z,19
2019-01-26T09:11:21.108Z,19.01
2019-01-26T09:12:21.161Z,19.03
2019-01-26T09:13:21.149Z,19.01
2019-01-26T09:14:21.122Z,19.06
2019-01-26T09:15:20.785Z,19.05
2019-01-26T09:16:21.058Z,19.06
2019-01-26T09:17:21.184Z,19.06
2019-01-26T09:18:21.020Z,19.07
2019-01-26T09:19:21.290Z,19.09
2019-01-26T09:20:21.298Z,19.09
2019-01-26T09:21:20.980Z,19.09
2019-01-26T09:22:23.977Z,19.09
2019-01-26T09:23:21.014Z,19.13
2019-01-26T09:24:21.247Z,19.13
2019-01-26T09:25:20.983Z,19.13
2019-01-26T09:26:21.501Z,19.14
2019-01-26T09:27:21.312Z,19.15
2019-01-26T09:28:20.963Z,19.2
2019-01-26T09:29:21.277Z,19.18
2019-01-26T09:30:20.894Z,19.21
2019-01-26T09:31:21.400Z,19.22
2019-01-26T09:32:21.341Z,19.23
2019-01-26T09:33:21.257Z,19.24
2019-01-26T09:34:21.103Z,19.24
2019-01-26T09:35:21.434Z,19.26
2019-01-26T09:36:20.997Z,19.27
2019-01-26T09:37:22.618Z,19.25
2019-01-26T09:38:20.985Z,19.25
2019-01-26T09:39:21.222Z,19.28
2019-01-26T09:40:20.965Z,19.29
2019-01-26T09:41:21.084Z,19.29
2019-01-26T09:42:21.013Z,19.31
2019-01-26T09:43:21.294Z,19.31
2019-01-26T09:44:21.424Z,19.31
2019-01-26T09:45:20.853Z,19.32
2019-01-26T09:46:21.076Z,19.32
2019-01-26T09:47:21.059Z,19.35
2019-01-26T09:48:21.052Z,19.33
2019-01-26T09:49:21.026Z,19.36
2019-01-26T09:50:20.903Z,19.38
2019-01-26T09:51:21.258Z,19.36
2019-01-26T09:52:21.336Z,19.38
2019-01-26T09:53:21.268Z,19.38
2019-01-26T09:54:21.307Z,19.38
2019-01-26T09:55:20.879Z,19.38
2019-01-26T09:56:20.882Z,19.41
2019-01-26T09:57:21.227Z,19.4
2019-01-26T09:58:21.223Z,19.4
2019-01-26T09:59:21.637Z,19.4
2019-01-26T10:00:21.103Z,19.43
2019-01-26T10:01:21.155Z,19.42
2019-01-26T10:02:21.320Z,19.45
2019-01-26T10:03:21.288Z,19.43
2019-01-26T10:04:20.832Z,19.45
2019-01-26T10:05:20.984Z,19.46
2019-01-26T10:06:21.086Z,19.46
2019-01-26T10:07:21.185Z,19.47
2019-01-26T10:08:20.956Z,19.47
2019-01-26T10:09:21.096Z,19.45
2019-01-26T10:10:21.298Z,19.48
2019-01-26T10:11:21.488Z,19.47
2019-01-26T10:12:22.092Z,19.5
2019-01-26T10:13:22.760Z,19.51
2019-01-26T10:14:22.560Z,19.51
2019-01-26T10:15:21.535Z,19.52
2019-01-26T10:16:22.120Z,19.52
2019-01-26T10:17:21.039Z,19.53
2019-01-26T10:18:21.218Z,19.52
2019-01-26T10:19:20.855Z,19.52
2019-01-26T10:20:21.446Z,19.56
2019-01-26T10:21:21.099Z,19.54
2019-01-26T10:22:21.470Z,19.56
2019-01-26T10:23:22.027Z,19.56
2019-01-26T10:24:21.028Z,19.58
2019-01-26T10:25:20.901Z,19.56
2019-01-26T10:26:21.302Z,19.55
2019-01-26T10:27:20.976Z,19.56
2019-01-26T10:28:21.449Z,19.56
2019-01-26T10:29:21.849Z,19.56
2019-01-26T10:30:21.556Z,19.56
2019-01-26T10:31:20.937Z,19.56
2019-01-26T10:32:20.981Z,19.57
2019-01-26T10:33:21.306Z,19.56
2019-01-26T10:34:21.027Z,19.56
2019-01-26T10:35:20.876Z,19.56
2019-01-26T10:36:21.245Z,19.56
2019-01-26T10:37:21.550Z,19.55
2019-01-26T10:38:20.944Z,19.54
2019-01-26T10:39:23.094Z,19.56
2019-01-26T10:40:22.817Z,19.56
2019-01-26T10:41:21.880Z,19.55
2019-01-26T10:42:21.521Z,19.55
2019-01-26T10:43:21.183Z,19.57
2019-01-26T10:44:21.169Z,19.58
2019-01-26T10:45:21.126Z,19.57
2019-01-26T10:46:21.910Z,19.58
2019-01-26T10:47:20.976Z,19.56
2019-01-26T10:48:22.918Z,19.59
2019-01-26T10:49:21.567Z,19.59
2019-01-26T10:50:21.159Z,19.58
2019-01-26T10:51:20.866Z,19.59
2019-01-26T10:52:21.115Z,19.58
2019-01-26T10:53:21.265Z,19.59
2019-01-26T10:54:20.986Z,19.58
2019-01-26T10:55:22.723Z,19.58
2019-01-26T10:56:21.208Z,19.6
2019-01-26T10:57:21.725Z,19.6
2019-01-26T10:58:22.622Z,19.63
2019-01-26T10:59:20.771Z,19.65
2019-01-26T11:00:20.977Z,19.65
2019-01-26T11:01:21.102Z,19.65
2019-01-26T11:02:21.247Z,19.67
2019-01-26T11:03:20.907Z,19.66
2019-01-26T11:04:21.263Z,19.67
2019-01-26T11:05:21.807Z,19.67
2019-01-26T11:06:21.319Z,19.68
2019-01-26T11:07:20.883Z,19.69
2019-01-26T11:08:21.708Z,19.69
2019-01-26T11:09:21.213Z,19.7
2019-01-26T11:10:21.625Z,19.71
2019-01-26T11:11:20.935Z,19.71
2019-01-26T11:12:21.794Z,19.72
2019-01-26T11:13:20.933Z,19.71
2019-01-26T11:14:21.823Z,19.73
2019-01-26T11:15:22.791Z,19.75
2019-01-26T11:16:21.798Z,19.76
2019-01-26T11:17:21.238Z,19.75
2019-01-26T11:18:21.156Z,19.75
2019-01-26T11:19:21.234Z,19.76
2019-01-26T11:20:21.124Z,19.79
2019-01-26T11:21:21.081Z,19.79
2019-01-26T11:22:21.205Z,19.81
2019-01-26T11:23:21.173Z,19.82
2019-01-26T11:24:21.210Z,19.81
2019-01-26T11:25:21.158Z,19.81
2019-01-26T11:26:21.087Z,19.81
2019-01-26T11:27:21.527Z,19.82
2019-01-26T11:28:21.206Z,19.82
2019-01-26T11:29:21.450Z,19.82
2019-01-26T11:30:21.174Z,19.84
2019-01-26T11:31:21.195Z,19.85
2019-01-26T11:32:21.439Z,19.86
2019-01-26T11:33:21.381Z,19.85
2019-01-26T11:34:21.052Z,19.88
2019-01-26T11:35:21.016Z,19.87
2019-01-26T11:36:21.155Z,19.88
2019-01-26T11:37:21.444Z,19.88
2019-01-26T11:38:22.916Z,19.88
2019-01-26T11:39:21.336Z,19.88
2019-01-26T11:40:21.432Z,19.9
2019-01-26T11:41:21.167Z,19.9
2019-01-26T11:42:20.757Z,19.91
2019-01-26T11:43:21.176Z,19.92
2019-01-26T11:44:21.406Z,19.91
2019-01-26T11:45:20.841Z,19.94
2019-01-26T11:46:21.997Z,19.95
2019-01-26T11:47:21.404Z,19.95
2019-01-26T11:48:22.294Z,19.97
2019-01-26T11:49:20.969Z,19.94
2019-01-26T11:50:21.340Z,19.97
2019-01-26T11:51:22.198Z,19.97
2019-01-26T11:52:22.798Z,19.99
2019-01-26T11:53:21.756Z,19.98
2019-01-26T11:54:21.249Z,19.97
2019-01-26T11:55:21.628Z,19.96
2019-01-26T11:56:22.063Z,19.98
2019-01-26T11:57:22.501Z,19.97
2019-01-26T11:58:21.268Z,19.99
2019-01-26T11:59:21.003Z,19.98
2019-01-26T12:00:20.810Z,19.98
2019-01-26T12:01:21.371Z,19.97
2019-01-26T12:02:21.109Z,19.97
2019-01-26T12:03:25.473Z,19.97
2019-01-26T12:04:21.063Z,19.99
2019-01-26T12:05:21.110Z,19.98
2019-01-26T12:06:20.966Z,19.98
2019-01-26T12:07:22.343Z,20
2019-01-26T12:08:21.323Z,19.98
2019-01-26T12:09:21.719Z,19.98
2019-01-26T12:10:21.272Z,19.97
2019-01-26T12:11:21.437Z,19.97
2019-01-26T12:12:21.235Z,19.97
2019-01-26T12:13:21.248Z,19.95
2019-01-26T12:14:21.409Z,19.97
2019-01-26T12:15:23.333Z,19.95
2019-01-26T12:16:27.403Z,19.95
2019-01-26T12:17:21.224Z,19.97
2019-01-26T12:18:21.345Z,19.92
2019-01-26T12:19:22.742Z,19.95
2019-01-26T12:20:21.194Z,19.92
2019-01-26T12:21:21.377Z,19.94
2019-01-26T12:22:21.548Z,19.92
2019-01-26T12:23:21.362Z,19.91
2019-01-26T12:24:21.153Z,19.92
2019-01-26T12:25:20.926Z,19.92
2019-01-26T12:26:21.528Z,19.9
2019-01-26T12:27:21.382Z,19.92
2019-01-26T12:28:20.985Z,19.92
2019-01-26T12:29:20.925Z,19.91
2019-01-26T12:30:21.245Z,19.91
2019-01-26T12:31:21.288Z,19.9
2019-01-26T12:32:22.885Z,19.89
2019-01-26T12:33:21.448Z,19.89
2019-01-26T12:34:21.914Z,19.91
2019-01-26T12:35:21.148Z,19.91
2019-01-26T12:36:20.744Z,19.89
2019-01-26T12:37:22.061Z,19.87
2019-01-26T12:38:21.071Z,19.89
2019-01-26T12:39:21.870Z,19.89
2019-01-26T12:40:21.782Z,19.89
2019-01-26T12:41:23.349Z,19.89
2019-01-26T12:42:21.112Z,19.88
2019-01-26T12:43:21.041Z,19.89
2019-01-26T12:44:20.876Z,19.89
2019-01-26T12:45:21.038Z,19.89
2019-01-26T12:46:21.010Z,19.89
2019-01-26T12:47:21.623Z,19.89
2019-01-26T12:48:21.473Z,19.88
2019-01-26T12:49:21.401Z,19.88
2019-01-26T12:50:20.923Z,19.89
2019-01-26T12:51:21.238Z,19.86
2019-01-26T12:52:21.049Z,19.89
2019-01-26T12:53:21.801Z,19.87
2019-01-26T12:54:21.046Z,19.89
2019-01-26T12:55:21.100Z,19.89